^^
Station Historical Data
Daily Summary for December 8, 2017 Units:  Both    English   Metric
« Previous Day
Next Day »
Daily Weekly Monthly Yearly Custom
  High: Low: Average:
Temperature: 84.0 °F /  28.9 °C 61.0 °F /  16.1 °C 71.9 °F /  22.2 °C
Dew Point: 70.9 °F /  21.6 °C 59.8 °F /  15.4 °C 65.9 °F /  18.8 °C
Humidity: 100% 56% 83%
Wind Speed: 0.0mph /  0km/h - 0mph /  0km/h
Wind Gust: 0.0mph /  0km/h - -
Wind- - North
Pressure: 29.96 in /  1014.4 hPa 29.76 in /  1007.7 hPa -
Precipitation: 0.05 in /  1.27 mm    
Historical Graphs
 
 
Tabular Data for December 8, 2017
Time Temperature Dew Point Pressure Wind Wind Speed Wind Gust Humidity Rainfall Rate (Hourly) solar Conditions
00:01 66.9 °F /  19.4 °C 65.7 °F /  18.7 °C 29.96in /  1014.4hPa Calm     96% 0.00in /  0mm 0.0 W/m2 OVC
00:06 66.9 °F /  19.4 °C 65.7 °F /  18.7 °C 29.96in /  1014.4hPa Calm     96% 0.00in /  0mm 0.0 W/m2 OVC
00:11 66.9 °F /  19.4 °C 65.7 °F /  18.7 °C 29.96in /  1014.4hPa Calm     96% 0.00in /  0mm 0.0 W/m2 OVC
00:16 66.9 °F /  19.4 °C 65.7 °F /  18.7 °C 29.96in /  1014.4hPa Calm     96% 0.00in /  0mm 0.0 W/m2 OVC
00:26 66.9 °F /  19.4 °C 65.7 °F /  18.7 °C 29.96in /  1014.4hPa Calm     96% 0.00in /  0mm 0.0 W/m2 OVC
00:31 66.9 °F /  19.4 °C 65.7 °F /  18.7 °C 29.96in /  1014.4hPa Calm     96% 0.00in /  0mm 0.0 W/m2 OVC
00:36 66.9 °F /  19.4 °C 65.7 °F /  18.7 °C 29.96in /  1014.4hPa Calm     96% 0.00in /  0mm 0.0 W/m2 OVC
00:41 66.9 °F /  19.4 °C 65.7 °F /  18.7 °C 29.96in /  1014.4hPa Calm     96% 0.00in /  0mm 0.0 W/m2 OVC
00:56 66.9 °F /  19.4 °C 65.7 °F /  18.7 °C 29.96in /  1014.4hPa Calm     96% 0.00in /  0mm 0.0 W/m2 OVC
01:01 66.0 °F /  18.9 °C 64.8 °F /  18.2 °C 29.95in /  1014.1hPa Calm     96% 0.00in /  0mm 0.0 W/m2 OVC
01:06 66.0 °F /  18.9 °C 64.8 °F /  18.2 °C 29.95in /  1014.1hPa Calm     96% 0.00in /  0mm 0.0 W/m2 OVC
01:11 66.0 °F /  18.9 °C 64.8 °F /  18.2 °C 29.95in /  1014.1hPa Calm     96% 0.00in /  0mm 0.0 W/m2 OVC
01:16 66.0 °F /  18.9 °C 64.8 °F /  18.2 °C 29.95in /  1014.1hPa Calm     96% 0.00in /  0mm 0.0 W/m2 OVC
01:21 66.0 °F /  18.9 °C 64.8 °F /  18.2 °C 29.95in /  1014.1hPa Calm     96% 0.00in /  0mm 0.0 W/m2 OVC
01:26 66.0 °F /  18.9 °C 64.8 °F /  18.2 °C 29.95in /  1014.1hPa Calm     96% 0.00in /  0mm 0.0 W/m2 OVC
01:31 66.0 °F /  18.9 °C 64.8 °F /  18.2 °C 29.95in /  1014.1hPa Calm     96% 0.00in /  0mm 0.0 W/m2 OVC
01:41 66.0 °F /  18.9 °C 64.8 °F /  18.2 °C 29.95in /  1014.1hPa Calm     96% 0.00in /  0mm 0.0 W/m2 OVC
01:51 64.9 °F /  18.3 °C 63.8 °F /  17.7 °C 29.93in /  1013.4hPa Calm     96% 0.00in /  0mm 0.0 W/m2 OVC
01:56 64.9 °F /  18.3 °C 63.8 °F /  17.7 °C 29.93in /  1013.4hPa Calm     96% 0.00in /  0mm 0.0 W/m2 OVC
02:01 64.0 °F /  17.8 °C 64.0 °F /  17.8 °C 29.93in /  1013.4hPa Calm     100% 0.00in /  0mm 0.0 W/m2 OVC
02:06 64.0 °F /  17.8 °C 64.0 °F /  17.8 °C 29.93in /  1013.4hPa Calm     100% 0.00in /  0mm 0.0 W/m2 OVC
02:11 64.0 °F /  17.8 °C 64.0 °F /  17.8 °C 29.93in /  1013.4hPa Calm     100% 0.00in /  0mm 0.0 W/m2 OVC
02:21 64.0 °F /  17.8 °C 64.0 °F /  17.8 °C 29.92in /  1013.1hPa Calm     100% 0.00in /  0mm 0.0 W/m2 OVC
02:26 64.0 °F /  17.8 °C 64.0 °F /  17.8 °C 29.92in /  1013.1hPa Calm     100% 0.00in /  0mm 0.0 W/m2 OVC
02:31 64.0 °F /  17.8 °C 64.0 °F /  17.8 °C 29.92in /  1013.1hPa Calm     100% 0.00in /  0mm 0.0 W/m2 OVC
02:36 64.0 °F /  17.8 °C 64.0 °F /  17.8 °C 29.92in /  1013.1hPa Calm     100% 0.00in /  0mm 0.0 W/m2 OVC
02:41 64.0 °F /  17.8 °C 64.0 °F /  17.8 °C 29.92in /  1013.1hPa Calm     100% 0.00in /  0mm 0.0 W/m2 OVC
02:46 64.0 °F /  17.8 °C 64.0 °F /  17.8 °C 29.92in /  1013.1hPa Calm     100% 0.00in /  0mm 0.0 W/m2 OVC
02:51 64.0 °F /  17.8 °C 64.0 °F /  17.8 °C 29.92in /  1013.1hPa Calm     100% 0.00in /  0mm 0.0 W/m2 OVC
02:56 64.0 °F /  17.8 °C 64.0 °F /  17.8 °C 29.92in /  1013.1hPa Calm     100% 0.00in /  0mm 0.0 W/m2 OVC
03:01 63.0 °F /  17.2 °C 63.0 °F /  17.2 °C 29.93in /  1013.4hPa Calm     100% 0.00in /  0mm 0.0 W/m2 OVC
03:11 63.0 °F /  17.2 °C 63.0 °F /  17.2 °C 29.93in /  1013.4hPa Calm     100% 0.00in /  0mm 0.0 W/m2 OVC
03:16 63.0 °F /  17.2 °C 63.0 °F /  17.2 °C 29.93in /  1013.4hPa Calm     100% 0.00in /  0mm 0.0 W/m2 OVC
03:21 63.0 °F /  17.2 °C 63.0 °F /  17.2 °C 29.93in /  1013.4hPa Calm     100% 0.00in /  0mm 0.0 W/m2 OVC
03:26 63.0 °F /  17.2 °C 63.0 °F /  17.2 °C 29.93in /  1013.4hPa Calm     100% 0.00in /  0mm 0.0 W/m2 OVC
03:31 63.0 °F /  17.2 °C 63.0 °F /  17.2 °C 29.93in /  1013.4hPa Calm     100% 0.00in /  0mm 0.0 W/m2 OVC
03:36 63.0 °F /  17.2 °C 63.0 °F /  17.2 °C 29.93in /  1013.4hPa Calm     100% 0.00in /  0mm 0.0 W/m2 OVC
03:41 63.0 °F /  17.2 °C 63.0 °F /  17.2 °C 29.93in /  1013.4hPa Calm     100% 0.00in /  0mm 0.0 W/m2 OVC
03:46 63.0 °F /  17.2 °C 63.0 °F /  17.2 °C 29.93in /  1013.4hPa Calm     100% 0.00in /  0mm 0.0 W/m2 OVC
03:56 63.0 °F /  17.2 °C 63.0 °F /  17.2 °C 29.93in /  1013.4hPa Calm     100% 0.00in /  0mm 0.0 W/m2 OVC
04:01 62.1 °F /  16.7 °C 62.1 °F /  16.7 °C 29.93in /  1013.4hPa Calm     100% 0.00in /  0mm 0.0 W/m2 OVC
04:06 62.1 °F /  16.7 °C 62.1 °F /  16.7 °C 29.93in /  1013.4hPa Calm     100% 0.00in /  0mm 0.0 W/m2 OVC
04:11 62.1 °F /  16.7 °C 62.1 °F /  16.7 °C 29.93in /  1013.4hPa Calm     100% 0.00in /  0mm 0.0 W/m2 OVC
04:16 62.1 °F /  16.7 °C 62.1 °F /  16.7 °C 29.93in /  1013.4hPa Calm     100% 0.00in /  0mm 0.0 W/m2 OVC
04:21 62.1 °F /  16.7 °C 62.1 °F /  16.7 °C 29.93in /  1013.4hPa Calm     100% 0.00in /  0mm 0.0 W/m2 OVC
04:26 62.1 °F /  16.7 °C 62.1 °F /  16.7 °C 29.93in /  1013.4hPa Calm     100% 0.00in /  0mm 0.0 W/m2 OVC
04:36 62.1 °F /  16.7 °C 62.1 °F /  16.7 °C 29.93in /  1013.4hPa Calm     100% 0.00in /  0mm 0.0 W/m2 OVC
04:56 62.1 °F /  16.7 °C 62.1 °F /  16.7 °C 29.93in /  1013.4hPa Calm     100% 0.00in /  0mm 0.0 W/m2 OVC
05:06 61.0 °F /  16.1 °C 61.0 °F /  16.1 °C 29.92in /  1013.1hPa Calm     100% 0.00in /  0mm 0.0 W/m2 BKN
05:16 61.0 °F /  16.1 °C 61.0 °F /  16.1 °C 29.92in /  1013.1hPa Calm     100% 0.00in /  0mm 0.0 W/m2 FEW
05:17 61.0 °F /  16.1 °C 61.0 °F /  16.1 °C 29.92in /  1013.1hPa Calm     100% 0.00in /  0mm 0.0 W/m2 FEW
05:22 61.0 °F /  16.1 °C 61.0 °F /  16.1 °C 29.92in /  1013.1hPa Calm     100% 0.00in /  0mm 0.0 W/m2 FEW
05:27 61.0 °F /  16.1 °C 61.0 °F /  16.1 °C 29.92in /  1013.1hPa Calm     100% 0.00in /  0mm 0.0 W/m2 FEW
05:32 61.0 °F /  16.1 °C 61.0 °F /  16.1 °C 29.92in /  1013.1hPa Calm     100% 0.00in /  0mm 0.0 W/m2 BKN
05:37 61.0 °F /  16.1 °C 61.0 °F /  16.1 °C 29.92in /  1013.1hPa Calm     100% 0.00in /  0mm 0.0 W/m2 BKN
05:42 61.0 °F /  16.1 °C 61.0 °F /  16.1 °C 29.92in /  1013.1hPa Calm     100% 0.00in /  0mm 0.0 W/m2 BKN
05:47 61.0 °F /  16.1 °C 61.0 °F /  16.1 °C 29.92in /  1013.1hPa Calm     100% 0.00in /  0mm 0.0 W/m2 OVC
05:57 61.0 °F /  16.1 °C 61.0 °F /  16.1 °C 29.92in /  1013.1hPa Calm     100% 0.00in /  0mm 0.0 W/m2 OVC
06:02 61.0 °F /  16.1 °C 59.8 °F /  15.4 °C 29.90in /  1012.4hPa Calm     96% 0.00in /  0mm 0.0 W/m2 OVC
06:12 61.0 °F /  16.1 °C 59.8 °F /  15.4 °C 29.90in /  1012.4hPa Calm     96% 0.00in /  0mm 0.0 W/m2 OVC
06:22 61.0 °F /  16.1 °C 61.0 °F /  16.1 °C 29.90in /  1012.4hPa Calm     100% 0.00in /  0mm 0.0 W/m2 OVC
06:27 61.0 °F /  16.1 °C 61.0 °F /  16.1 °C 29.90in /  1012.4hPa Calm     100% 0.00in /  0mm 0.0 W/m2 OVC
06:37 61.0 °F /  16.1 °C 61.0 °F /  16.1 °C 29.90in /  1012.4hPa Calm     100% 0.00in /  0mm 0.0 W/m2 OVC
06:42 61.0 °F /  16.1 °C 61.0 °F /  16.1 °C 29.90in /  1012.4hPa Calm     100% 0.00in /  0mm 0.0 W/m2 OVC
06:47 61.0 °F /  16.1 °C 61.0 °F /  16.1 °C 29.90in /  1012.4hPa Calm     100% 0.00in /  0mm 0.0 W/m2 OVC
06:52 61.0 °F /  16.1 °C 61.0 °F /  16.1 °C 29.90in /  1012.4hPa Calm     100% 0.00in /  0mm 0.0 W/m2 OVC
06:57 61.0 °F /  16.1 °C 61.0 °F /  16.1 °C 29.90in /  1012.4hPa Calm     100% 0.00in /  0mm 0.0 W/m2 OVC
07:07 62.1 °F /  16.7 °C 60.9 °F /  16.1 °C 29.90in /  1012.4hPa Calm     96% 0.00in /  0mm 0.0 W/m2 OVC
07:12 62.1 °F /  16.7 °C 60.9 °F /  16.1 °C 29.90in /  1012.4hPa Calm     96% 0.00in /  0mm 0.0 W/m2 OVC
07:17 62.1 °F /  16.7 °C 60.9 °F /  16.1 °C 29.90in /  1012.4hPa Calm     96% 0.00in /  0mm 0.0 W/m2 OVC
07:22 62.1 °F /  16.7 °C 60.9 °F /  16.1 °C 29.90in /  1012.4hPa Calm     96% 0.00in /  0mm 0.0 W/m2 OVC
07:27 62.1 °F /  16.7 °C 60.9 °F /  16.1 °C 29.90in /  1012.4hPa Calm     96% 0.00in /  0mm 0.0 W/m2 OVC
07:32 62.1 °F /  16.7 °C 60.9 °F /  16.1 °C 29.90in /  1012.4hPa Calm     96% 0.00in /  0mm 0.0 W/m2 OVC
07:42 62.1 °F /  16.7 °C 60.9 °F /  16.1 °C 29.90in /  1012.4hPa Calm     96% 0.00in /  0mm 0.0 W/m2 OVC
07:52 62.1 °F /  16.7 °C 60.9 °F /  16.1 °C 29.90in /  1012.4hPa Calm     96% 0.00in /  0mm 0.0 W/m2 OVC
07:57 62.1 °F /  16.7 °C 60.9 °F /  16.1 °C 29.90in /  1012.4hPa Calm     96% 0.00in /  0mm 0.0 W/m2 OVC
08:02 63.0 °F /  17.2 °C 61.8 °F /  16.6 °C 29.91in /  1012.8hPa Calm     96% 0.00in /  0mm 0.0 W/m2 OVC
08:07 63.0 °F /  17.2 °C 61.8 °F /  16.6 °C 29.91in /  1012.8hPa Calm     96% 0.00in /  0mm 0.0 W/m2 OVC
08:12 63.0 °F /  17.2 °C 61.8 °F /  16.6 °C 29.91in /  1012.8hPa Calm     96% 0.00in /  0mm 0.0 W/m2 OVC
08:17 63.0 °F /  17.2 °C 61.8 °F /  16.6 °C 29.91in /  1012.8hPa Calm     96% 0.00in /  0mm 0.0 W/m2 OVC
08:22 63.0 °F /  17.2 °C 61.8 °F /  16.6 °C 29.91in /  1012.8hPa Calm     96% 0.00in /  0mm 0.0 W/m2 OVC
08:27 63.0 °F /  17.2 °C 61.8 °F /  16.6 °C 29.91in /  1012.8hPa Calm     96% 0.00in /  0mm 0.0 W/m2 OVC
08:32 63.0 °F /  17.2 °C 61.8 °F /  16.6 °C 29.91in /  1012.8hPa Calm     96% 0.00in /  0mm 0.0 W/m2 OVC
08:37 63.0 °F /  17.2 °C 61.8 °F /  16.6 °C 29.91in /  1012.8hPa Calm     96% 0.00in /  0mm 0.0 W/m2 OVC
08:42 63.0 °F /  17.2 °C 61.8 °F /  16.6 °C 29.91in /  1012.8hPa Calm     96% 0.00in /  0mm 0.0 W/m2 OVC
08:57 63.0 °F /  17.2 °C 61.8 °F /  16.6 °C 29.91in /  1012.8hPa Calm     96% 0.00in /  0mm 0.0 W/m2 OVC
09:02 64.0 °F /  17.8 °C 62.9 °F /  17.2 °C 29.90in /  1012.4hPa Calm     96% 0.00in /  0mm 0.0 W/m2 OVC
09:07 64.0 °F /  17.8 °C 62.9 °F /  17.2 °C 29.90in /  1012.4hPa Calm     96% 0.00in /  0mm 0.0 W/m2 OVC
09:12 64.0 °F /  17.8 °C 62.9 °F /  17.2 °C 29.90in /  1012.4hPa Calm     96% 0.00in /  0mm 0.0 W/m2 OVC
09:17 64.0 °F /  17.8 °C 62.9 °F /  17.2 °C 29.90in /  1012.4hPa Calm     96% 0.00in /  0mm 0.0 W/m2 OVC
09:22 64.0 °F /  17.8 °C 62.9 °F /  17.2 °C 29.90in /  1012.4hPa Calm     96% 0.00in /  0mm 0.0 W/m2 OVC
09:27 64.0 °F /  17.8 °C 62.9 °F /  17.2 °C 29.90in /  1012.4hPa Calm     96% 0.00in /  0mm 0.0 W/m2 OVC
09:32 64.0 °F /  17.8 °C 62.9 °F /  17.2 °C 29.90in /  1012.4hPa Calm     96% 0.00in /  0mm 0.0 W/m2 OVC
09:37 64.0 °F /  17.8 °C 62.9 °F /  17.2 °C 29.90in /  1012.4hPa Calm     96% 0.00in /  0mm 0.0 W/m2 OVC
09:42 64.0 °F /  17.8 °C 62.9 °F /  17.2 °C 29.90in /  1012.4hPa Calm     96% 0.00in /  0mm 0.0 W/m2 OVC
09:52 64.0 °F /  17.8 °C 62.9 °F /  17.2 °C 29.90in /  1012.4hPa Calm     96% 0.00in /  0mm 0.0 W/m2 OVC
09:57 64.0 °F /  17.8 °C 62.9 °F /  17.2 °C 29.90in /  1012.4hPa Calm     96% 0.00in /  0mm 0.0 W/m2 OVC
10:07 66.9 °F /  19.4 °C 64.8 °F /  18.2 °C 29.90in /  1012.4hPa Calm     93% 0.00in /  0mm 0.0 W/m2 OVC
10:12 66.9 °F /  19.4 °C 64.8 °F /  18.2 °C 29.90in /  1012.4hPa Calm     93% 0.00in /  0mm 0.0 W/m2 OVC
10:17 66.9 °F /  19.4 °C 64.8 °F /  18.2 °C 29.90in /  1012.4hPa Calm     93% 0.00in /  0mm 0.0 W/m2 OVC
10:22 66.9 °F /  19.4 °C 64.8 °F /  18.2 °C 29.90in /  1012.4hPa Calm     93% 0.00in /  0mm 0.0 W/m2 OVC
10:27 66.9 °F /  19.4 °C 64.8 °F /  18.2 °C 29.90in /  1012.4hPa Calm     93% 0.00in /  0mm 0.0 W/m2 OVC
10:32 66.9 °F /  19.4 °C 64.8 °F /  18.2 °C 29.90in /  1012.4hPa Calm     93% 0.00in /  0mm 0.0 W/m2 OVC
10:37 66.9 °F /  19.4 °C 64.8 °F /  18.2 °C 29.90in /  1012.4hPa Calm     93% 0.00in /  0mm 0.0 W/m2 OVC
10:47 66.9 °F /  19.4 °C 64.8 °F /  18.2 °C 29.90in /  1012.4hPa Calm     93% 0.00in /  0mm 0.0 W/m2 OVC
10:52 66.9 °F /  19.4 °C 64.8 °F /  18.2 °C 29.90in /  1012.4hPa Calm     93% 0.00in /  0mm 0.0 W/m2 OVC
10:57 66.9 °F /  19.4 °C 64.8 °F /  18.2 °C 29.90in /  1012.4hPa Calm     93% 0.00in /  0mm 0.0 W/m2 OVC
11:07 72.0 °F /  22.2 °C 68.9 °F /  20.5 °C 29.90in /  1012.4hPa Calm     90% 0.00in /  0mm 0.0 W/m2 OVC
11:12 72.0 °F /  22.2 °C 68.9 °F /  20.5 °C 29.90in /  1012.4hPa Calm     90% 0.00in /  0mm 0.0 W/m2 OVC
11:17 72.0 °F /  22.2 °C 68.9 °F /  20.5 °C 29.90in /  1012.4hPa Calm     90% 0.00in /  0mm 0.0 W/m2 OVC
11:27 72.0 °F /  22.2 °C 68.9 °F /  20.5 °C 29.90in /  1012.4hPa Calm     90% 0.00in /  0mm 0.0 W/m2 OVC
11:32 75.9 °F /  24.4 °C 69.7 °F /  20.9 °C 29.88in /  1011.7hPa Calm     81% 0.00in /  0mm 0.0 W/m2 OVC
11:37 75.9 °F /  24.4 °C 69.7 °F /  20.9 °C 29.88in /  1011.7hPa Calm     81% 0.00in /  0mm 0.0 W/m2 OVC
11:42 75.9 °F /  24.4 °C 69.7 °F /  20.9 °C 29.88in /  1011.7hPa Calm     81% 0.00in /  0mm 0.0 W/m2 OVC
11:47 75.9 °F /  24.4 °C 69.7 °F /  20.9 °C 29.86in /  1011.1hPa Calm     81% 0.00in /  0mm 0.0 W/m2 BKN
11:52 75.9 °F /  24.4 °C 69.7 °F /  20.9 °C 29.86in /  1011.1hPa Calm     81% 0.00in /  0mm 0.0 W/m2 BKN
12:02 77.0 °F /  25 °C 69.6 °F /  20.9 °C 29.86in /  1011.1hPa Calm     78% 0.00in /  0mm 0.0 W/m2 FEW
12:07 77.0 °F /  25 °C 69.6 °F /  20.9 °C 29.86in /  1011.1hPa Calm     78% 0.00in /  0mm 0.0 W/m2 FEW
12:12 77.0 °F /  25 °C 69.6 °F /  20.9 °C 29.86in /  1011.1hPa Calm     78% 0.00in /  0mm 0.0 W/m2 FEW
12:17 77.0 °F /  25 °C 69.6 °F /  20.9 °C 29.86in /  1011.1hPa Calm     78% 0.00in /  0mm 0.0 W/m2 FEW
12:22 77.0 °F /  25 °C 69.6 °F /  20.9 °C 29.86in /  1011.1hPa Calm     78% 0.00in /  0mm 0.0 W/m2 FEW
12:27 77.0 °F /  25 °C 69.6 °F /  20.9 °C 29.86in /  1011.1hPa Calm     78% 0.00in /  0mm 0.0 W/m2 FEW
12:32 77.0 °F /  25 °C 69.6 °F /  20.9 °C 29.86in /  1011.1hPa Calm     78% 0.00in /  0mm 0.0 W/m2 FEW
12:37 77.0 °F /  25 °C 69.6 °F /  20.9 °C 29.86in /  1011.1hPa Calm     78% 0.00in /  0mm 0.0 W/m2 FEW
12:42 77.0 °F /  25 °C 69.6 °F /  20.9 °C 29.86in /  1011.1hPa Calm     78% 0.00in /  0mm 0.0 W/m2 FEW
12:52 77.0 °F /  25 °C 69.6 °F /  20.9 °C 29.86in /  1011.1hPa Calm     78% 0.00in /  0mm 0.0 W/m2 BKN
12:57 77.0 °F /  25 °C 69.6 °F /  20.9 °C 29.86in /  1011.1hPa Calm     78% 0.00in /  0mm 0.0 W/m2 BKN
13:02 80.1 °F /  26.7 °C 69.0 °F /  20.6 °C 29.81in /  1009.4hPa Calm     69% 0.00in /  0mm 0.0 W/m2 SCT
13:07 80.1 °F /  26.7 °C 69.0 °F /  20.6 °C 29.81in /  1009.4hPa Calm     69% 0.00in /  0mm 0.0 W/m2 SCT
13:12 80.1 °F /  26.7 °C 69.0 °F /  20.6 °C 29.81in /  1009.4hPa Calm     69% 0.00in /  0mm 0.0 W/m2 SCT
13:17 80.1 °F /  26.7 °C 69.0 °F /  20.6 °C 29.81in /  1009.4hPa Calm     69% 0.00in /  0mm 0.0 W/m2 SCT
13:22 80.1 °F /  26.7 °C 69.0 °F /  20.6 °C 29.81in /  1009.4hPa Calm     69% 0.00in /  0mm 0.0 W/m2 SCT
13:32 80.1 °F /  26.7 °C 69.0 °F /  20.6 °C 29.81in /  1009.4hPa Calm     69% 0.00in /  0mm 0.0 W/m2 SCT
13:37 80.1 °F /  26.7 °C 69.0 °F /  20.6 °C 29.81in /  1009.4hPa Calm     69% 0.00in /  0mm 0.0 W/m2 SCT
13:42 80.1 °F /  26.7 °C 69.0 °F /  20.6 °C 29.81in /  1009.4hPa Calm     69% 0.00in /  0mm 0.0 W/m2 SCT
13:47 80.1 °F /  26.7 °C 69.0 °F /  20.6 °C 29.81in /  1009.4hPa Calm     69% 0.00in /  0mm 0.0 W/m2 SCT
13:57 80.1 °F /  26.7 °C 69.0 °F /  20.6 °C 29.81in /  1009.4hPa Calm     69% 0.00in /  0mm 0.0 W/m2 SCT
14:02 84.0 °F /  28.9 °C 66.6 °F /  19.2 °C 29.78in /  1008.4hPa Calm     56% 0.00in /  0mm 0.0 W/m2 SCT
14:07 84.0 °F /  28.9 °C 66.6 °F /  19.2 °C 29.78in /  1008.4hPa Calm     56% 0.00in /  0mm 0.0 W/m2 SCT
14:12 84.0 °F /  28.9 °C 66.6 °F /  19.2 °C 29.78in /  1008.4hPa Calm     56% 0.00in /  0mm 0.0 W/m2 SCT
14:17 84.0 °F /  28.9 °C 66.6 °F /  19.2 °C 29.78in /  1008.4hPa Calm     56% 0.00in /  0mm 0.0 W/m2 SCT
14:22 84.0 °F /  28.9 °C 66.6 °F /  19.2 °C 29.78in /  1008.4hPa Calm     56% 0.00in /  0mm 0.0 W/m2 SCT
14:27 84.0 °F /  28.9 °C 66.6 °F /  19.2 °C 29.78in /  1008.4hPa Calm     56% 0.00in /  0mm 0.0 W/m2 SCT
14:32 84.0 °F /  28.9 °C 66.6 °F /  19.2 °C 29.78in /  1008.4hPa Calm     56% 0.00in /  0mm 0.0 W/m2 SCT
14:42 84.0 °F /  28.9 °C 66.6 °F /  19.2 °C 29.78in /  1008.4hPa Calm     56% 0.00in /  0mm 0.0 W/m2 SCT
14:47 84.0 °F /  28.9 °C 66.6 °F /  19.2 °C 29.78in /  1008.4hPa Calm     56% 0.00in /  0mm 0.0 W/m2 SCT
14:57 84.0 °F /  28.9 °C 66.6 °F /  19.2 °C 29.78in /  1008.4hPa Calm     56% 0.00in /  0mm 0.0 W/m2 SCT
15:02 82.0 °F /  27.8 °C 65.8 °F /  18.8 °C 29.76in /  1007.7hPa Calm     58% 0.00in /  0mm 0.0 W/m2 FEW
15:07 82.0 °F /  27.8 °C 65.8 °F /  18.8 °C 29.76in /  1007.7hPa Calm     58% 0.00in /  0mm 0.0 W/m2 FEW
15:12 82.0 °F /  27.8 °C 65.8 °F /  18.8 °C 29.76in /  1007.7hPa Calm     58% 0.00in /  0mm 0.0 W/m2 FEW
15:17 82.0 °F /  27.8 °C 65.8 °F /  18.8 °C 29.76in /  1007.7hPa Calm     58% 0.00in /  0mm 0.0 W/m2 FEW
15:22 82.0 °F /  27.8 °C 65.8 °F /  18.8 °C 29.76in /  1007.7hPa Calm     58% 0.00in /  0mm 0.0 W/m2 FEW
15:27 82.0 °F /  27.8 °C 65.8 °F /  18.8 °C 29.76in /  1007.7hPa Calm     58% 0.00in /  0mm 0.0 W/m2 FEW
15:32 82.0 °F /  27.8 °C 65.8 °F /  18.8 °C 29.76in /  1007.7hPa Calm     58% 0.00in /  0mm 0.0 W/m2 FEW
15:37 82.0 °F /  27.8 °C 65.8 °F /  18.8 °C 29.76in /  1007.7hPa Calm     58% 0.00in /  0mm 0.0 W/m2 FEW
15:47 82.0 °F /  27.8 °C 65.8 °F /  18.8 °C 29.76in /  1007.7hPa Calm     58% 0.00in /  0mm 0.0 W/m2 FEW
15:52 82.0 °F /  27.8 °C 65.8 °F /  18.8 °C 29.76in /  1007.7hPa Calm     58% 0.00in /  0mm 0.0 W/m2 FEW
15:57 82.0 °F /  27.8 °C 65.8 °F /  18.8 °C 29.76in /  1007.7hPa Calm     58% 0.00in /  0mm 0.0 W/m2 FEW
16:02 80.1 °F /  26.7 °C 66.8 °F /  19.3 °C 29.76in /  1007.7hPa Calm     64% 0.00in /  0mm 0.0 W/m2 CLR
16:07 80.1 °F /  26.7 °C 66.8 °F /  19.3 °C 29.76in /  1007.7hPa Calm     64% 0.00in /  0mm 0.0 W/m2 CLR
16:12 80.1 °F /  26.7 °C 66.8 °F /  19.3 °C 29.76in /  1007.7hPa Calm     64% 0.00in /  0mm 0.0 W/m2 CLR
16:17 80.1 °F /  26.7 °C 66.8 °F /  19.3 °C 29.76in /  1007.7hPa Calm     64% 0.00in /  0mm 0.0 W/m2 CLR
16:28 80.1 °F /  26.7 °C 66.8 °F /  19.3 °C 29.76in /  1007.7hPa Calm     64% 0.00in /  0mm 0.0 W/m2 CLR
16:33 80.1 °F /  26.7 °C 66.8 °F /  19.3 °C 29.76in /  1007.7hPa Calm     64% 0.00in /  0mm 0.0 W/m2 CLR
16:38 80.1 °F /  26.7 °C 66.8 °F /  19.3 °C 29.76in /  1007.7hPa Calm     64% 0.00in /  0mm 0.0 W/m2 CLR
16:43 80.1 °F /  26.7 °C 66.8 °F /  19.3 °C 29.76in /  1007.7hPa Calm     64% 0.00in /  0mm 0.0 W/m2 CLR
16:48 80.1 °F /  26.7 °C 66.8 °F /  19.3 °C 29.76in /  1007.7hPa Calm     64% 0.00in /  0mm 0.0 W/m2 CLR
16:53 80.1 °F /  26.7 °C 66.8 °F /  19.3 °C 29.76in /  1007.7hPa Calm     64% 0.00in /  0mm 0.0 W/m2 CLR
16:58 80.1 °F /  26.7 °C 66.8 °F /  19.3 °C 29.76in /  1007.7hPa Calm     64% 0.00in /  0mm 0.0 W/m2 CLR
17:03 80.1 °F /  26.7 °C 65.9 °F /  18.8 °C 29.76in /  1007.7hPa Calm     62% 0.00in /  0mm 0.0 W/m2 SCT
17:08 80.1 °F /  26.7 °C 65.9 °F /  18.8 °C 29.76in /  1007.7hPa Calm     62% 0.00in /  0mm 0.0 W/m2 SCT
17:13 80.1 °F /  26.7 °C 65.9 °F /  18.8 °C 29.76in /  1007.7hPa Calm     62% 0.00in /  0mm 0.0 W/m2 SCT
17:18 80.1 °F /  26.7 °C 65.9 °F /  18.8 °C 29.76in /  1007.7hPa Calm     62% 0.00in /  0mm 0.0 W/m2 SCT
17:23 80.1 °F /  26.7 °C 65.9 °F /  18.8 °C 29.76in /  1007.7hPa Calm     62% 0.00in /  0mm 0.0 W/m2 SCT
17:28 80.1 °F /  26.7 °C 65.9 °F /  18.8 °C 29.76in /  1007.7hPa Calm     62% 0.00in /  0mm 0.0 W/m2 SCT
17:33 80.1 °F /  26.7 °C 65.9 °F /  18.8 °C 29.76in /  1007.7hPa Calm     62% 0.00in /  0mm 0.0 W/m2 SCT
17:38 80.1 °F /  26.7 °C 65.9 °F /  18.8 °C 29.76in /  1007.7hPa Calm     62% 0.00in /  0mm 0.0 W/m2 SCT
17:43 80.1 °F /  26.7 °C 65.9 °F /  18.8 °C 29.76in /  1007.7hPa Calm     62% 0.00in /  0mm 0.0 W/m2 SCT
17:48 80.1 °F /  26.7 °C 65.9 °F /  18.8 °C 29.76in /  1007.7hPa Calm     62% 0.00in /  0mm 0.0 W/m2 SCT
17:53 80.1 °F /  26.7 °C 65.9 °F /  18.8 °C 29.76in /  1007.7hPa Calm     62% 0.00in /  0mm 0.0 W/m2 SCT
17:58 80.1 °F /  26.7 °C 65.9 °F /  18.8 °C 29.76in /  1007.7hPa Calm     62% 0.00in /  0mm 0.0 W/m2 SCT
18:03 79.0 °F /  26.1 °C 66.6 °F /  19.2 °C 29.77in /  1008hPa Calm     66% 0.00in /  0mm 0.0 W/m2 BKN
18:08 79.0 °F /  26.1 °C 66.6 °F /  19.2 °C 29.77in /  1008hPa Calm     66% 0.00in /  0mm 0.0 W/m2 BKN
18:13 79.0 °F /  26.1 °C 66.6 °F /  19.2 °C 29.77in /  1008hPa Calm     66% 0.00in /  0mm 0.0 W/m2 BKN
18:18 79.0 °F /  26.1 °C 66.6 °F /  19.2 °C 29.77in /  1008hPa Calm     66% 0.00in /  0mm 0.0 W/m2 BKN
18:23 79.0 °F /  26.1 °C 66.6 °F /  19.2 °C 29.77in /  1008hPa Calm     66% 0.00in /  0mm 0.0 W/m2 BKN
18:28 79.0 °F /  26.1 °C 66.6 °F /  19.2 °C 29.77in /  1008hPa Calm     66% 0.00in /  0mm 0.0 W/m2 BKN
18:33 79.0 °F /  26.1 °C 66.6 °F /  19.2 °C 29.77in /  1008hPa Calm     66% 0.00in /  0mm 0.0 W/m2 BKN
18:38 79.0 °F /  26.1 °C 66.6 °F /  19.2 °C 29.77in /  1008hPa Calm     66% 0.00in /  0mm 0.0 W/m2 BKN
18:43 79.0 °F /  26.1 °C 66.6 °F /  19.2 °C 29.77in /  1008hPa Calm     66% 0.00in /  0mm 0.0 W/m2 BKN
18:48 79.0 °F /  26.1 °C 66.6 °F /  19.2 °C 29.77in /  1008hPa Calm     66% 0.00in /  0mm 0.0 W/m2 BKN
18:53 79.0 °F /  26.1 °C 66.6 °F /  19.2 °C 29.77in /  1008hPa Calm     66% 0.00in /  0mm 0.0 W/m2 BKN
18:58 79.0 °F /  26.1 °C 66.6 °F /  19.2 °C 29.77in /  1008hPa Calm     66% 0.00in /  0mm 0.0 W/m2 BKN
19:03 77.0 °F /  25 °C 67.7 °F /  19.8 °C 29.78in /  1008.4hPa Calm     73% 0.00in /  0mm 0.0 W/m2 BKN
19:08 77.0 °F /  25 °C 67.7 °F /  19.8 °C 29.78in /  1008.4hPa Calm     73% 0.00in /  0mm 0.0 W/m2 BKN
19:13 77.0 °F /  25 °C 67.7 °F /  19.8 °C 29.78in /  1008.4hPa Calm     73% 0.00in /  0mm 0.0 W/m2 BKN
19:18 77.0 °F /  25 °C 67.7 °F /  19.8 °C 29.78in /  1008.4hPa Calm     73% 0.00in /  0mm 0.0 W/m2 BKN
19:23 77.0 °F /  25 °C 67.7 °F /  19.8 °C 29.78in /  1008.4hPa Calm     73% 0.00in /  0mm 0.0 W/m2 BKN
19:28 77.0 °F /  25 °C 67.7 °F /  19.8 °C 29.78in /  1008.4hPa Calm     73% 0.00in /  0mm 0.0 W/m2 BKN
19:33 77.0 °F /  25 °C 67.7 °F /  19.8 °C 29.78in /  1008.4hPa Calm     73% 0.00in /  0mm 0.0 W/m2 BKN
19:38 77.0 °F /  25 °C 67.7 °F /  19.8 °C 29.78in /  1008.4hPa Calm     73% 0.00in /  0mm 0.0 W/m2 BKN
19:43 77.0 °F /  25 °C 67.7 °F /  19.8 °C 29.78in /  1008.4hPa Calm     73% 0.00in /  0mm 0.0 W/m2 BKN
19:48 77.0 °F /  25 °C 67.7 °F /  19.8 °C 29.78in /  1008.4hPa Calm     73% 0.00in /  0mm 0.0 W/m2 BKN
19:53 77.0 °F /  25 °C 67.7 °F /  19.8 °C 29.78in /  1008.4hPa Calm     73% 0.00in /  0mm 0.0 W/m2 BKN
19:58 77.0 °F /  25 °C 67.7 °F /  19.8 °C 29.78in /  1008.4hPa Calm     73% 0.00in /  0mm 0.0 W/m2 BKN
20:03 77.0 °F /  25 °C 68.9 °F /  20.5 °C 29.79in /  1008.7hPa Calm     76% 0.02in /  0.51mm 0.0 W/m2 -RA
20:08 77.0 °F /  25 °C 68.9 °F /  20.5 °C 29.79in /  1008.7hPa Calm     76% 0.02in /  0.51mm 0.0 W/m2 -RA
20:13 77.0 °F /  25 °C 68.9 °F /  20.5 °C 29.79in /  1008.7hPa Calm     76% 0.02in /  0.51mm 0.0 W/m2 -RA
20:18 77.0 °F /  25 °C 68.9 °F /  20.5 °C 29.79in /  1008.7hPa Calm     76% 0.02in /  0.51mm 0.0 W/m2 -RA
20:23 77.0 °F /  25 °C 68.9 °F /  20.5 °C 29.79in /  1008.7hPa Calm     76% 0.02in /  0.51mm 0.0 W/m2 -RA
20:33 77.0 °F /  25 °C 68.9 °F /  20.5 °C 29.79in /  1008.7hPa Calm     76% 0.02in /  0.51mm 0.0 W/m2 -RA
20:38 77.0 °F /  25 °C 68.9 °F /  20.5 °C 29.79in /  1008.7hPa Calm     76% 0.02in /  0.51mm 0.0 W/m2 -RA
20:43 77.0 °F /  25 °C 68.9 °F /  20.5 °C 29.79in /  1008.7hPa Calm     76% 0.02in /  0.51mm 0.0 W/m2 -RA
20:48 77.0 °F /  25 °C 68.9 °F /  20.5 °C 29.79in /  1008.7hPa Calm     76% 0.02in /  0.51mm 0.0 W/m2 -RA
20:53 77.0 °F /  25 °C 68.9 °F /  20.5 °C 29.79in /  1008.7hPa Calm     76% 0.02in /  0.51mm 0.0 W/m2 -RA
20:58 77.0 °F /  25 °C 68.9 °F /  20.5 °C 29.79in /  1008.7hPa Calm     76% 0.02in /  0.51mm 0.0 W/m2 -RA
21:03 75.9 °F /  24.4 °C 68.9 °F /  20.5 °C 29.79in /  1008.7hPa Calm     79% 0.02in /  0.51mm 0.0 W/m2 RA
21:08 75.9 °F /  24.4 °C 68.9 °F /  20.5 °C 29.79in /  1008.7hPa Calm     79% 0.02in /  0.51mm 0.0 W/m2 RA
21:13 75.9 °F /  24.4 °C 68.9 °F /  20.5 °C 29.79in /  1008.7hPa Calm     79% 0.02in /  0.51mm 0.0 W/m2 SCT
21:18 75.9 °F /  24.4 °C 68.9 °F /  20.5 °C 29.79in /  1008.7hPa Calm     79% 0.02in /  0.51mm 0.0 W/m2 SCT
21:23 75.9 °F /  24.4 °C 68.9 °F /  20.5 °C 29.79in /  1008.7hPa Calm     79% 0.02in /  0.51mm 0.0 W/m2 SCT
21:28 75.9 °F /  24.4 °C 68.9 °F /  20.5 °C 29.79in /  1008.7hPa Calm     79% 0.02in /  0.51mm 0.0 W/m2 SCT
21:33 75.9 °F /  24.4 °C 68.9 °F /  20.5 °C 29.79in /  1008.7hPa Calm     79% 0.02in /  0.51mm 0.0 W/m2 SCT
21:38 75.9 °F /  24.4 °C 68.9 °F /  20.5 °C 29.79in /  1008.7hPa Calm     79% 0.02in /  0.51mm 0.0 W/m2 SCT
21:43 75.9 °F /  24.4 °C 68.9 °F /  20.5 °C 29.79in /  1008.7hPa Calm     79% 0.02in /  0.51mm 0.0 W/m2 SCT
21:48 75.9 °F /  24.4 °C 69.7 °F /  20.9 °C 29.80in /  1009hPa Calm     81% 0.02in /  0.51mm 0.0 W/m2 SCT
21:53 75.9 °F /  24.4 °C 69.7 °F /  20.9 °C 29.80in /  1009hPa Calm     81% 0.02in /  0.51mm 0.0 W/m2 SCT
21:58 75.9 °F /  24.4 °C 69.7 °F /  20.9 °C 29.80in /  1009hPa Calm     81% 0.02in /  0.51mm 0.0 W/m2 SCT
22:03 75.0 °F /  23.9 °C 70.9 °F /  21.6 °C 29.80in /  1009hPa Calm     87% 0.01in /  0.25mm 0.0 W/m2 RA
22:19 75.0 °F /  23.9 °C 70.9 °F /  21.6 °C 29.80in /  1009hPa Calm     87% 0.01in /  0.25mm 0.0 W/m2 SCT
22:20 75.0 °F /  23.9 °C 70.9 °F /  21.6 °C 29.80in /  1009hPa Calm     87% 0.01in /  0.25mm 0.0 W/m2 SCT
22:25 75.0 °F /  23.9 °C 70.9 °F /  21.6 °C 29.80in /  1009hPa Calm     87% 0.01in /  0.25mm 0.0 W/m2 SCT
22:27 75.0 °F /  23.9 °C 70.9 °F /  21.6 °C 29.80in /  1009hPa Calm     87% 0.01in /  0.25mm 0.0 W/m2 SCT
22:37 75.0 °F /  23.9 °C 70.9 °F /  21.6 °C 29.80in /  1009hPa Calm     87% 0.01in /  0.25mm 0.0 W/m2 SCT
22:47 75.0 °F /  23.9 °C 70.9 °F /  21.6 °C 29.80in /  1009hPa Calm     87% 0.01in /  0.25mm 0.0 W/m2 SCT
22:52 75.0 °F /  23.9 °C 70.9 °F /  21.6 °C 29.80in /  1009hPa Calm     87% 0.01in /  0.25mm 0.0 W/m2 SCT
23:02 73.9 °F /  23.3 °C 70.8 °F /  21.6 °C 29.79in /  1008.7hPa Calm     90% 0.00in /  0mm 0.0 W/m2 SCT
23:07 73.9 °F /  23.3 °C 70.8 °F /  21.6 °C 29.79in /  1008.7hPa Calm     90% 0.00in /  0mm 0.0 W/m2 SCT
23:12 73.9 °F /  23.3 °C 70.8 °F /  21.6 °C 29.79in /  1008.7hPa Calm     90% 0.00in /  0mm 0.0 W/m2 SCT
23:17 73.9 °F /  23.3 °C 70.8 °F /  21.6 °C 29.79in /  1008.7hPa Calm     90% 0.00in /  0mm 0.0 W/m2 SCT
23:22 73.9 °F /  23.3 °C 70.8 °F /  21.6 °C 29.79in /  1008.7hPa Calm     90% 0.00in /  0mm 0.0 W/m2 SCT
23:28 73.9 °F /  23.3 °C 70.8 °F /  21.6 °C 29.79in /  1008.7hPa Calm     90% 0.00in /  0mm 0.0 W/m2 SCT
23:33 73.9 °F /  23.3 °C 70.8 °F /  21.6 °C 29.79in /  1008.7hPa Calm     90% 0.00in /  0mm 0.0 W/m2 SCT
23:38 73.9 °F /  23.3 °C 70.8 °F /  21.6 °C 29.79in /  1008.7hPa Calm     90% 0.00in /  0mm 0.0 W/m2 SCT
23:43 73.9 °F /  23.3 °C 70.8 °F /  21.6 °C 29.79in /  1008.7hPa Calm     90% 0.00in /  0mm 0.0 W/m2 SCT
23:48 73.9 °F /  23.3 °C 70.8 °F /  21.6 °C 29.79in /  1008.7hPa Calm     90% 0.00in /  0mm 0.0 W/m2 SCT
23:53 73.9 °F /  23.3 °C 70.8 °F /  21.6 °C 29.79in /  1008.7hPa Calm     90% 0.00in /  0mm 0.0 W/m2 SCT
23:58 73.9 °F /  23.3 °C 70.8 °F /  21.6 °C 29.79in /  1008.7hPa Calm     90% 0.00in /  0mm 0.0 W/m2 SCT
Lake Mary, FL, USA
Compliments of Weather Underground - 1.75 mb